Waynesville, NC (28785)

2:03 PM EST on February 25, 2017 (GMT -0500)
Historic Oak (Stone Gate) | | Change Station

Elev 3000 ft 35.60 °N, 83.03 °W | Updated 12 seconds ago

Clear
Clear
55.7 °F
Feels Like 55.7 °F
N
4.0
Wind Variable Wind from SE

Today
High -- | Low -- °F
--% Chance of Precip.
Yesterday
High -- | Low -- °F
Precip. -- in
Pressure 29.66 in
Visibility 10.0 miles
Clouds Clear
Dew Point 21 °F
Humidity 25%
Rainfall 0.60 in
Snow Depth Not available.
7:07 AM 6:24 PM
Waning Crescent, 1% visible
METAR KAVL 251854Z 32023G33KT 10SM CLR 17/M07 A2971 RMK AO2 PK WND 33033/1846 SLP043 T01721072
Pressure 29.66 in
Visibility 10.0 miles
Clouds Clear
Dew Point 21 °F
Humidity 25%
Rainfall 0.60 in
Snow Depth Not available.
7:07 AM 6:24 PM
Waning Crescent, 1% visible
METAR KAVL 251854Z 32023G33KT 10SM CLR 17/M07 A2971 RMK AO2 PK WND 33033/1846 SLP043 T01721072

Get Your Daily Forecast Email!

Thanks for signing up!

Be on the lookout for a verification email in your inbox.

You'll start receiving the daily forecast at 8 AM.

×

10-Day Weather Forecast

Almanac

Astronomy

Feb. 25, 2017 Rise Set
Actual Time
Civil Twilight
Nautical Twilight
Astronomical Twilight
Moon
Length of Visible Light
Length of Day
Tomorrow will be .
, % of the Moon is Illuminated

Today's Extremes

State Highs State Lows

Community

WunderPhotos

Upload Photos

1,962,540 photos uploaded!

WunderBlog® & News

Nearby

Air Quality

  Air Quality AQ Index Pollutant
Not available.

Snow Depth

Station Depth Elevation

Earthquake Activity

City Distance Mag. Time & Date
Minimum magnitude displayed is 2.5.

Coastal Water Temperatures

Place Temperature

Stations

Nearby Weather Stations

Station Location Temp. Windchill Dew Point Humidity Wind Precip. Elev Updated Type
                   

Watches & Warnings

There are currently no watches in effect.